sensor_id;sensor_type;location;lat;lon;timestamp;P1;durP1;ratioP1;P2;durP2;ratioP2
8415;SDS011;4245;42.120;24.732;2022-12-07T00:01:39;16.77;;;7.77;;
8415;SDS011;4245;42.120;24.732;2022-12-07T00:04:10;17.47;;;7.77;;
8415;SDS011;4245;42.120;24.732;2022-12-07T00:06:39;17.17;;;7.70;;
8415;SDS011;4245;42.120;24.732;2022-12-07T00:09:08;14.40;;;6.83;;
8415;SDS011;4245;42.120;24.732;2022-12-07T00:11:37;15.37;;;7.37;;
8415;SDS011;4245;42.120;24.732;2022-12-07T00:14:05;17.20;;;7.87;;
8415;SDS011;4245;42.120;24.732;2022-12-07T00:16:34;17.03;;;8.83;;
8415;SDS011;4245;42.120;24.732;2022-12-07T00:19:01;20.13;;;8.07;;
8415;SDS011;4245;42.120;24.732;2022-12-07T00:21:31;20.83;;;9.17;;
8415;SDS011;4245;42.120;24.732;2022-12-07T00:23:59;14.17;;;8.03;;
8415;SDS011;4245;42.120;24.732;2022-12-07T00:26:28;19.47;;;8.67;;
8415;SDS011;4245;42.120;24.732;2022-12-07T00:28:57;23.03;;;8.40;;
8415;SDS011;4245;42.120;24.732;2022-12-07T00:31:25;16.90;;;8.13;;
8415;SDS011;4245;42.120;24.732;2022-12-07T00:33:54;15.43;;;8.17;;
8415;SDS011;4245;42.120;24.732;2022-12-07T00:36:22;13.87;;;7.07;;
8415;SDS011;4245;42.120;24.732;2022-12-07T00:38:51;14.93;;;7.40;;
8415;SDS011;4245;42.120;24.732;2022-12-07T00:41:19;12.57;;;7.40;;
8415;SDS011;4245;42.120;24.732;2022-12-07T00:43:47;21.00;;;8.60;;
8415;SDS011;4245;42.120;24.732;2022-12-07T00:46:15;23.00;;;9.30;;
8415;SDS011;4245;42.120;24.732;2022-12-07T00:48:43;19.90;;;8.70;;
8415;SDS011;4245;42.120;24.732;2022-12-07T00:51:11;17.67;;;8.40;;
8415;SDS011;4245;42.120;24.732;2022-12-07T00:53:38;26.63;;;10.23;;
8415;SDS011;4245;42.120;24.732;2022-12-07T00:56:07;22.47;;;10.00;;
8415;SDS011;4245;42.120;24.732;2022-12-07T00:58:35;22.67;;;10.43;;
8415;SDS011;4245;42.120;24.732;2022-12-07T01:01:02;23.17;;;10.30;;
8415;SDS011;4245;42.120;24.732;2022-12-07T01:03:31;23.80;;;10.53;;
8415;SDS011;4245;42.120;24.732;2022-12-07T01:05:58;25.07;;;10.27;;
8415;SDS011;4245;42.120;24.732;2022-12-07T01:08:25;21.73;;;11.40;;
8415;SDS011;4245;42.120;24.732;2022-12-07T01:10:57;25.17;;;11.37;;
8415;SDS011;4245;42.120;24.732;2022-12-07T01:13:27;25.03;;;11.17;;
8415;SDS011;4245;42.120;24.732;2022-12-07T01:15:56;25.67;;;10.77;;
8415;SDS011;4245;42.120;24.732;2022-12-07T01:18:25;22.97;;;11.03;;
8415;SDS011;4245;42.120;24.732;2022-12-07T01:20:57;24.50;;;12.17;;
8415;SDS011;4245;42.120;24.732;2022-12-07T01:23:24;24.70;;;11.87;;
8415;SDS011;4245;42.120;24.732;2022-12-07T01:25:53;25.77;;;11.00;;
8415;SDS011;4245;42.120;24.732;2022-12-07T01:28:21;24.60;;;11.83;;
8415;SDS011;4245;42.120;24.732;2022-12-07T01:30:56;22.37;;;11.87;;
8415;SDS011;4245;42.120;24.732;2022-12-07T01:33:27;26.37;;;12.30;;
8415;SDS011;4245;42.120;24.732;2022-12-07T01:35:55;22.93;;;11.83;;
8415;SDS011;4245;42.120;24.732;2022-12-07T01:38:27;28.67;;;12.37;;
8415;SDS011;4245;42.120;24.732;2022-12-07T01:40:55;19.37;;;10.10;;
8415;SDS011;4245;42.120;24.732;2022-12-07T01:43:23;27.67;;;10.50;;
8415;SDS011;4245;42.120;24.732;2022-12-07T01:45:52;20.80;;;11.33;;
8415;SDS011;4245;42.120;24.732;2022-12-07T01:48:21;23.97;;;10.07;;
8415;SDS011;4245;42.120;24.732;2022-12-07T01:50:50;22.00;;;9.47;;
8415;SDS011;4245;42.120;24.732;2022-12-07T01:53:19;24.80;;;10.17;;
8415;SDS011;4245;42.120;24.732;2022-12-07T01:55:47;19.00;;;9.20;;
8415;SDS011;4245;42.120;24.732;2022-12-07T01:58:19;16.60;;;9.13;;
8415;SDS011;4245;42.120;24.732;2022-12-07T02:00:47;18.40;;;7.80;;
8415;SDS011;4245;42.120;24.732;2022-12-07T02:03:15;16.27;;;7.70;;
8415;SDS011;4245;42.120;24.732;2022-12-07T02:05:48;14.20;;;8.70;;
8415;SDS011;4245;42.120;24.732;2022-12-07T02:08:16;17.03;;;9.03;;
8415;SDS011;4245;42.120;24.732;2022-12-07T02:10:43;19.07;;;8.23;;
8415;SDS011;4245;42.120;24.732;2022-12-07T02:13:11;21.10;;;8.30;;
8415;SDS011;4245;42.120;24.732;2022-12-07T02:15:44;15.27;;;7.33;;
8415;SDS011;4245;42.120;24.732;2022-12-07T02:18:33;23.73;;;7.73;;
8415;SDS011;4245;42.120;24.732;2022-12-07T02:21:10;17.10;;;7.30;;
8415;SDS011;4245;42.120;24.732;2022-12-07T02:23:46;17.03;;;6.83;;
8415;SDS011;4245;42.120;24.732;2022-12-07T02:26:38;14.20;;;7.07;;
8415;SDS011;4245;42.120;24.732;2022-12-07T02:29:22;13.43;;;7.03;;
8415;SDS011;4245;42.120;24.732;2022-12-07T02:31:53;16.13;;;7.47;;
8415;SDS011;4245;42.120;24.732;2022-12-07T02:34:32;16.27;;;7.60;;
8415;SDS011;4245;42.120;24.732;2022-12-07T02:37:08;14.87;;;7.93;;
8415;SDS011;4245;42.120;24.732;2022-12-07T02:39:41;14.87;;;7.33;;
8415;SDS011;4245;42.120;24.732;2022-12-07T02:42:14;22.43;;;8.60;;
8415;SDS011;4245;42.120;24.732;2022-12-07T02:44:45;17.83;;;9.23;;
8415;SDS011;4245;42.120;24.732;2022-12-07T02:47:14;15.53;;;7.73;;
8415;SDS011;4245;42.120;24.732;2022-12-07T02:49:46;20.57;;;9.33;;
8415;SDS011;4245;42.120;24.732;2022-12-07T02:52:13;17.37;;;8.63;;
8415;SDS011;4245;42.120;24.732;2022-12-07T02:54:40;16.30;;;8.70;;
8415;SDS011;4245;42.120;24.732;2022-12-07T02:57:11;21.03;;;8.57;;
8415;SDS011;4245;42.120;24.732;2022-12-07T02:59:52;16.77;;;8.60;;
8415;SDS011;4245;42.120;24.732;2022-12-07T03:02:31;16.60;;;8.47;;
8415;SDS011;4245;42.120;24.732;2022-12-07T03:05:21;19.93;;;8.50;;
8415;SDS011;4245;42.120;24.732;2022-12-07T03:08:01;16.80;;;8.03;;
8415;SDS011;4245;42.120;24.732;2022-12-07T03:10:35;16.43;;;7.93;;
8415;SDS011;4245;42.120;24.732;2022-12-07T03:13:09;17.90;;;7.90;;
8415;SDS011;4245;42.120;24.732;2022-12-07T03:15:47;20.67;;;8.00;;
8415;SDS011;4245;42.120;24.732;2022-12-07T03:18:20;20.73;;;9.13;;
8415;SDS011;4245;42.120;24.732;2022-12-07T03:20:50;17.17;;;8.07;;
8415;SDS011;4245;42.120;24.732;2022-12-07T03:23:22;19.87;;;8.80;;
8415;SDS011;4245;42.120;24.732;2022-12-07T03:25:53;16.20;;;7.77;;
8415;SDS011;4245;42.120;24.732;2022-12-07T03:28:24;22.43;;;9.30;;
8415;SDS011;4245;42.120;24.732;2022-12-07T03:30:56;17.87;;;9.10;;
8415;SDS011;4245;42.120;24.732;2022-12-07T03:33:29;15.23;;;7.87;;
8415;SDS011;4245;42.120;24.732;2022-12-07T03:36:01;22.27;;;7.97;;
8415;SDS011;4245;42.120;24.732;2022-12-07T03:38:35;17.77;;;8.23;;
8415;SDS011;4245;42.120;24.732;2022-12-07T03:41:07;15.97;;;8.20;;
8415;SDS011;4245;42.120;24.732;2022-12-07T03:43:38;16.00;;;8.37;;
8415;SDS011;4245;42.120;24.732;2022-12-07T03:46:09;16.93;;;7.63;;
8415;SDS011;4245;42.120;24.732;2022-12-07T03:48:46;15.00;;;6.97;;
8415;SDS011;4245;42.120;24.732;2022-12-07T03:51:21;14.63;;;7.07;;
8415;SDS011;4245;42.120;24.732;2022-12-07T03:53:54;12.13;;;6.80;;
8415;SDS011;4245;42.120;24.732;2022-12-07T03:56:26;15.27;;;6.97;;
8415;SDS011;4245;42.120;24.732;2022-12-07T03:58:55;17.23;;;7.13;;
8415;SDS011;4245;42.120;24.732;2022-12-07T04:01:24;14.80;;;7.10;;
8415;SDS011;4245;42.120;24.732;2022-12-07T04:03:51;12.83;;;7.20;;
8415;SDS011;4245;42.120;24.732;2022-12-07T04:06:18;14.03;;;6.67;;
8415;SDS011;4245;42.120;24.732;2022-12-07T04:08:45;15.17;;;7.50;;
8415;SDS011;4245;42.120;24.732;2022-12-07T04:11:11;13.97;;;6.90;;
8415;SDS011;4245;42.120;24.732;2022-12-07T04:13:38;14.40;;;7.23;;
8415;SDS011;4245;42.120;24.732;2022-12-07T04:16:19;14.03;;;7.70;;
8415;SDS011;4245;42.120;24.732;2022-12-07T04:18:47;18.33;;;7.47;;
8415;SDS011;4245;42.120;24.732;2022-12-07T04:21:14;16.47;;;7.90;;
8415;SDS011;4245;42.120;24.732;2022-12-07T04:23:41;20.00;;;8.83;;
8415;SDS011;4245;42.120;24.732;2022-12-07T04:26:08;18.20;;;7.93;;
8415;SDS011;4245;42.120;24.732;2022-12-07T04:28:35;16.37;;;7.83;;
8415;SDS011;4245;42.120;24.732;2022-12-07T04:31:02;15.40;;;7.57;;
8415;SDS011;4245;42.120;24.732;2022-12-07T04:33:29;17.57;;;8.00;;
8415;SDS011;4245;42.120;24.732;2022-12-07T04:35:57;19.67;;;8.63;;
8415;SDS011;4245;42.120;24.732;2022-12-07T04:38:24;16.77;;;8.17;;
8415;SDS011;4245;42.120;24.732;2022-12-07T04:40:51;21.50;;;8.37;;
8415;SDS011;4245;42.120;24.732;2022-12-07T04:43:18;19.30;;;8.67;;
8415;SDS011;4245;42.120;24.732;2022-12-07T04:45:45;17.40;;;8.77;;
8415;SDS011;4245;42.120;24.732;2022-12-07T04:48:13;21.90;;;9.10;;
8415;SDS011;4245;42.120;24.732;2022-12-07T04:50:40;20.17;;;9.33;;
8415;SDS011;4245;42.120;24.732;2022-12-07T04:53:08;17.97;;;8.33;;
8415;SDS011;4245;42.120;24.732;2022-12-07T04:55:35;22.57;;;10.00;;
8415;SDS011;4245;42.120;24.732;2022-12-07T04:58:02;20.77;;;10.13;;
8415;SDS011;4245;42.120;24.732;2022-12-07T05:00:29;24.73;;;10.47;;
8415;SDS011;4245;42.120;24.732;2022-12-07T05:02:56;24.73;;;12.60;;
8415;SDS011;4245;42.120;24.732;2022-12-07T05:05:23;28.87;;;12.23;;
8415;SDS011;4245;42.120;24.732;2022-12-07T05:07:50;35.57;;;13.87;;
8415;SDS011;4245;42.120;24.732;2022-12-07T05:10:18;31.57;;;12.93;;
8415;SDS011;4245;42.120;24.732;2022-12-07T05:12:46;36.53;;;13.57;;
8415;SDS011;4245;42.120;24.732;2022-12-07T05:15:13;30.87;;;13.17;;
8415;SDS011;4245;42.120;24.732;2022-12-07T05:17:40;41.20;;;14.90;;
8415;SDS011;4245;42.120;24.732;2022-12-07T05:20:08;35.47;;;13.53;;
8415;SDS011;4245;42.120;24.732;2022-12-07T05:22:35;32.57;;;12.47;;
8415;SDS011;4245;42.120;24.732;2022-12-07T05:25:02;29.67;;;11.53;;
8415;SDS011;4245;42.120;24.732;2022-12-07T05:27:31;25.30;;;13.10;;
8415;SDS011;4245;42.120;24.732;2022-12-07T05:29:58;40.17;;;13.97;;
8415;SDS011;4245;42.120;24.732;2022-12-07T05:32:25;33.00;;;13.20;;
8415;SDS011;4245;42.120;24.732;2022-12-07T05:34:52;32.93;;;12.13;;
8415;SDS011;4245;42.120;24.732;2022-12-07T05:37:20;29.43;;;11.43;;
8415;SDS011;4245;42.120;24.732;2022-12-07T05:39:46;28.90;;;11.90;;
8415;SDS011;4245;42.120;24.732;2022-12-07T05:42:13;31.57;;;12.77;;
8415;SDS011;4245;42.120;24.732;2022-12-07T05:44:43;33.97;;;13.60;;
8415;SDS011;4245;42.120;24.732;2022-12-07T05:47:12;42.13;;;16.03;;
8415;SDS011;4245;42.120;24.732;2022-12-07T05:49:40;50.23;;;22.30;;
8415;SDS011;4245;42.120;24.732;2022-12-07T05:52:07;50.00;;;25.10;;
8415;SDS011;4245;42.120;24.732;2022-12-07T05:54:34;40.77;;;22.10;;
8415;SDS011;4245;42.120;24.732;2022-12-07T05:57:01;47.27;;;22.27;;
8415;SDS011;4245;42.120;24.732;2022-12-07T05:59:28;36.53;;;17.53;;
8415;SDS011;4245;42.120;24.732;2022-12-07T06:01:56;39.10;;;18.00;;
8415;SDS011;4245;42.120;24.732;2022-12-07T06:04:24;35.30;;;16.10;;
8415;SDS011;4245;42.120;24.732;2022-12-07T06:06:52;35.47;;;14.13;;
8415;SDS011;4245;42.120;24.732;2022-12-07T06:09:20;34.50;;;14.00;;
8415;SDS011;4245;42.120;24.732;2022-12-07T06:11:48;30.33;;;13.43;;
8415;SDS011;4245;42.120;24.732;2022-12-07T06:14:32;23.17;;;11.67;;
8415;SDS011;4245;42.120;24.732;2022-12-07T06:17:00;25.50;;;13.63;;
8415;SDS011;4245;42.120;24.732;2022-12-07T06:19:27;26.80;;;12.80;;
8415;SDS011;4245;42.120;24.732;2022-12-07T06:21:54;26.23;;;13.47;;
8415;SDS011;4245;42.120;24.732;2022-12-07T06:24:21;31.80;;;13.47;;
8415;SDS011;4245;42.120;24.732;2022-12-07T06:26:49;30.97;;;12.13;;
8415;SDS011;4245;42.120;24.732;2022-12-07T06:29:16;18.10;;;9.37;;
8415;SDS011;4245;42.120;24.732;2022-12-07T06:31:44;19.70;;;10.03;;
8415;SDS011;4245;42.120;24.732;2022-12-07T06:34:13;25.23;;;12.10;;
8415;SDS011;4245;42.120;24.732;2022-12-07T06:36:42;21.93;;;11.50;;
8415;SDS011;4245;42.120;24.732;2022-12-07T06:39:09;27.63;;;12.83;;
8415;SDS011;4245;42.120;24.732;2022-12-07T06:41:36;31.23;;;12.70;;
8415;SDS011;4245;42.120;24.732;2022-12-07T06:44:03;29.17;;;12.90;;
8415;SDS011;4245;42.120;24.732;2022-12-07T06:46:31;25.90;;;13.77;;
8415;SDS011;4245;42.120;24.732;2022-12-07T06:48:58;28.40;;;14.67;;
8415;SDS011;4245;42.120;24.732;2022-12-07T06:51:26;25.93;;;13.20;;
8415;SDS011;4245;42.120;24.732;2022-12-07T06:53:53;26.83;;;13.40;;
8415;SDS011;4245;42.120;24.732;2022-12-07T06:56:20;26.80;;;14.07;;
8415;SDS011;4245;42.120;24.732;2022-12-07T06:58:47;30.70;;;14.83;;
8415;SDS011;4245;42.120;24.732;2022-12-07T07:01:16;28.53;;;15.53;;
8415;SDS011;4245;42.120;24.732;2022-12-07T07:03:44;33.00;;;15.50;;
8415;SDS011;4245;42.120;24.732;2022-12-07T07:06:11;33.97;;;16.43;;
8415;SDS011;4245;42.120;24.732;2022-12-07T07:08:41;33.03;;;15.90;;
8415;SDS011;4245;42.120;24.732;2022-12-07T07:11:08;36.03;;;16.83;;
8415;SDS011;4245;42.120;24.732;2022-12-07T07:13:35;35.50;;;18.77;;
8415;SDS011;4245;42.120;24.732;2022-12-07T07:16:03;40.43;;;21.93;;
8415;SDS011;4245;42.120;24.732;2022-12-07T07:18:30;32.67;;;18.23;;
8415;SDS011;4245;42.120;24.732;2022-12-07T07:20:57;32.00;;;18.43;;
8415;SDS011;4245;42.120;24.732;2022-12-07T07:23:24;35.97;;;18.70;;
8415;SDS011;4245;42.120;24.732;2022-12-07T07:25:52;36.10;;;18.47;;
8415;SDS011;4245;42.120;24.732;2022-12-07T07:28:19;36.47;;;19.47;;
8415;SDS011;4245;42.120;24.732;2022-12-07T07:30:46;51.40;;;22.80;;
8415;SDS011;4245;42.120;24.732;2022-12-07T07:33:13;47.43;;;21.30;;
8415;SDS011;4245;42.120;24.732;2022-12-07T07:35:40;68.27;;;25.50;;
8415;SDS011;4245;42.120;24.732;2022-12-07T07:38:08;89.77;;;30.83;;
8415;SDS011;4245;42.120;24.732;2022-12-07T07:40:35;138.03;;;42.67;;
8415;SDS011;4245;42.120;24.732;2022-12-07T07:43:03;74.10;;;28.97;;
8415;SDS011;4245;42.120;24.732;2022-12-07T07:48:22;44.87;;;20.87;;
8415;SDS011;4245;42.120;24.732;2022-12-07T07:50:50;43.17;;;20.93;;
8415;SDS011;4245;42.120;24.732;2022-12-07T07:53:17;41.03;;;20.93;;
8415;SDS011;4245;42.120;24.732;2022-12-07T07:55:49;40.77;;;19.50;;
8415;SDS011;4245;42.120;24.732;2022-12-07T07:58:19;42.63;;;19.43;;
8415;SDS011;4245;42.120;24.732;2022-12-07T08:00:48;42.87;;;19.83;;
8415;SDS011;4245;42.120;24.732;2022-12-07T08:03:16;41.50;;;20.80;;
8415;SDS011;4245;42.120;24.732;2022-12-07T08:05:42;50.10;;;20.70;;
8415;SDS011;4245;42.120;24.732;2022-12-07T08:08:09;44.73;;;20.73;;
8415;SDS011;4245;42.120;24.732;2022-12-07T08:10:36;54.90;;;19.40;;
8415;SDS011;4245;42.120;24.732;2022-12-07T08:13:03;45.00;;;19.77;;
8415;SDS011;4245;42.120;24.732;2022-12-07T08:15:41;41.20;;;20.60;;
8415;SDS011;4245;42.120;24.732;2022-12-07T08:18:09;37.47;;;19.93;;
8415;SDS011;4245;42.120;24.732;2022-12-07T08:20:37;43.67;;;18.90;;
8415;SDS011;4245;42.120;24.732;2022-12-07T08:23:05;46.40;;;19.77;;
8415;SDS011;4245;42.120;24.732;2022-12-07T08:25:32;41.37;;;21.17;;
8415;SDS011;4245;42.120;24.732;2022-12-07T08:27:59;39.60;;;18.97;;
8415;SDS011;4245;42.120;24.732;2022-12-07T08:30:27;35.10;;;18.07;;
8415;SDS011;4245;42.120;24.732;2022-12-07T08:32:56;33.47;;;18.80;;
8415;SDS011;4245;42.120;24.732;2022-12-07T08:35:23;32.70;;;18.07;;
8415;SDS011;4245;42.120;24.732;2022-12-07T08:37:51;32.23;;;17.53;;
8415;SDS011;4245;42.120;24.732;2022-12-07T08:40:18;30.27;;;16.63;;
8415;SDS011;4245;42.120;24.732;2022-12-07T08:42:48;34.70;;;17.83;;
8415;SDS011;4245;42.120;24.732;2022-12-07T08:45:16;31.07;;;17.83;;
8415;SDS011;4245;42.120;24.732;2022-12-07T08:47:45;30.87;;;17.63;;
8415;SDS011;4245;42.120;24.732;2022-12-07T08:50:16;33.67;;;17.87;;
8415;SDS011;4245;42.120;24.732;2022-12-07T08:52:43;41.67;;;18.60;;
8415;SDS011;4245;42.120;24.732;2022-12-07T08:55:10;40.57;;;19.87;;
8415;SDS011;4245;42.120;24.732;2022-12-07T08:57:38;34.13;;;19.27;;
8415;SDS011;4245;42.120;24.732;2022-12-07T09:00:06;38.10;;;18.97;;
8415;SDS011;4245;42.120;24.732;2022-12-07T09:02:34;32.77;;;18.93;;
8415;SDS011;4245;42.120;24.732;2022-12-07T09:05:01;35.50;;;18.80;;
8415;SDS011;4245;42.120;24.732;2022-12-07T09:07:30;34.93;;;19.13;;
8415;SDS011;4245;42.120;24.732;2022-12-07T09:09:58;34.10;;;19.63;;
8415;SDS011;4245;42.120;24.732;2022-12-07T09:12:25;40.37;;;19.20;;
8415;SDS011;4245;42.120;24.732;2022-12-07T09:14:52;32.03;;;18.40;;
8415;SDS011;4245;42.120;24.732;2022-12-07T09:17:18;35.60;;;19.37;;
8415;SDS011;4245;42.120;24.732;2022-12-07T09:19:45;37.83;;;19.40;;
8415;SDS011;4245;42.120;24.732;2022-12-07T09:22:12;38.17;;;20.63;;
8415;SDS011;4245;42.120;24.732;2022-12-07T09:24:40;34.43;;;19.33;;
8415;SDS011;4245;42.120;24.732;2022-12-07T09:27:08;36.83;;;19.73;;
8415;SDS011;4245;42.120;24.732;2022-12-07T09:29:35;34.20;;;19.70;;
8415;SDS011;4245;42.120;24.732;2022-12-07T09:32:02;36.90;;;18.83;;
8415;SDS011;4245;42.120;24.732;2022-12-07T09:34:30;36.57;;;18.80;;
8415;SDS011;4245;42.120;24.732;2022-12-07T09:36:57;36.47;;;18.57;;
8415;SDS011;4245;42.120;24.732;2022-12-07T09:39:24;30.67;;;17.90;;
8415;SDS011;4245;42.120;24.732;2022-12-07T09:41:52;34.70;;;18.03;;
8415;SDS011;4245;42.120;24.732;2022-12-07T09:44:20;32.07;;;18.40;;
8415;SDS011;4245;42.120;24.732;2022-12-07T09:46:50;34.43;;;18.50;;
8415;SDS011;4245;42.120;24.732;2022-12-07T09:49:19;34.67;;;17.90;;
8415;SDS011;4245;42.120;24.732;2022-12-07T09:51:47;38.57;;;19.07;;
8415;SDS011;4245;42.120;24.732;2022-12-07T09:54:25;32.53;;;18.97;;
8415;SDS011;4245;42.120;24.732;2022-12-07T09:56:53;32.13;;;19.73;;
8415;SDS011;4245;42.120;24.732;2022-12-07T09:59:20;36.23;;;20.40;;
8415;SDS011;4245;42.120;24.732;2022-12-07T10:01:47;34.07;;;20.17;;
8415;SDS011;4245;42.120;24.732;2022-12-07T10:04:17;35.67;;;18.70;;
8415;SDS011;4245;42.120;24.732;2022-12-07T10:06:46;32.73;;;17.73;;
8415;SDS011;4245;42.120;24.732;2022-12-07T10:09:14;36.60;;;18.93;;
8415;SDS011;4245;42.120;24.732;2022-12-07T10:11:59;32.27;;;17.40;;
8415;SDS011;4245;42.120;24.732;2022-12-07T10:14:31;32.47;;;16.70;;
8415;SDS011;4245;42.120;24.732;2022-12-07T10:16:59;29.83;;;16.77;;
8415;SDS011;4245;42.120;24.732;2022-12-07T10:19:27;26.00;;;15.87;;
8415;SDS011;4245;42.120;24.732;2022-12-07T10:21:59;27.37;;;15.83;;
8415;SDS011;4245;42.120;24.732;2022-12-07T10:24:36;27.40;;;15.00;;
8415;SDS011;4245;42.120;24.732;2022-12-07T10:27:09;26.00;;;14.90;;
8415;SDS011;4245;42.120;24.732;2022-12-07T10:29:46;31.13;;;15.17;;
8415;SDS011;4245;42.120;24.732;2022-12-07T10:32:26;28.37;;;15.67;;
8415;SDS011;4245;42.120;24.732;2022-12-07T10:35:15;36.50;;;17.93;;
8415;SDS011;4245;42.120;24.732;2022-12-07T10:37:46;35.03;;;18.43;;
8415;SDS011;4245;42.120;24.732;2022-12-07T10:40:25;33.40;;;18.37;;
8415;SDS011;4245;42.120;24.732;2022-12-07T10:43:01;26.87;;;16.07;;
8415;SDS011;4245;42.120;24.732;2022-12-07T10:45:41;29.37;;;16.27;;
8415;SDS011;4245;42.120;24.732;2022-12-07T10:48:34;27.20;;;14.87;;
8415;SDS011;4245;42.120;24.732;2022-12-07T10:51:07;25.90;;;14.00;;
8415;SDS011;4245;42.120;24.732;2022-12-07T10:53:40;27.00;;;14.30;;
8415;SDS011;4245;42.120;24.732;2022-12-07T10:59:16;23.70;;;12.40;;
8415;SDS011;4245;42.120;24.732;2022-12-07T11:02:11;21.13;;;12.70;;
8415;SDS011;4245;42.120;24.732;2022-12-07T11:04:50;22.20;;;13.07;;
8415;SDS011;4245;42.120;24.732;2022-12-07T11:07:30;26.33;;;13.43;;
8415;SDS011;4245;42.120;24.732;2022-12-07T11:10:08;23.07;;;12.10;;
8415;SDS011;4245;42.120;24.732;2022-12-07T11:12:47;22.23;;;11.87;;
8415;SDS011;4245;42.120;24.732;2022-12-07T11:15:27;18.63;;;12.40;;
8415;SDS011;4245;42.120;24.732;2022-12-07T11:18:01;22.43;;;10.83;;
8415;SDS011;4245;42.120;24.732;2022-12-07T11:20:37;22.93;;;12.20;;
8415;SDS011;4245;42.120;24.732;2022-12-07T11:23:15;23.83;;;12.20;;
8415;SDS011;4245;42.120;24.732;2022-12-07T11:25:49;17.97;;;11.87;;
8415;SDS011;4245;42.120;24.732;2022-12-07T11:28:28;24.23;;;11.50;;
8415;SDS011;4245;42.120;24.732;2022-12-07T11:31:09;21.20;;;11.87;;
8415;SDS011;4245;42.120;24.732;2022-12-07T11:33:46;22.30;;;11.97;;
8415;SDS011;4245;42.120;24.732;2022-12-07T11:36:22;26.47;;;12.33;;
8415;SDS011;4245;42.120;24.732;2022-12-07T11:39:00;21.47;;;11.63;;
8415;SDS011;4245;42.120;24.732;2022-12-07T11:41:31;23.53;;;11.43;;
8415;SDS011;4245;42.120;24.732;2022-12-07T11:44:04;22.03;;;12.00;;
8415;SDS011;4245;42.120;24.732;2022-12-07T11:46:39;19.63;;;11.73;;
8415;SDS011;4245;42.120;24.732;2022-12-07T11:49:14;25.40;;;13.23;;
8415;SDS011;4245;42.120;24.732;2022-12-07T11:51:47;24.50;;;11.63;;
8415;SDS011;4245;42.120;24.732;2022-12-07T11:54:19;25.23;;;11.93;;
8415;SDS011;4245;42.120;24.732;2022-12-07T11:56:50;25.93;;;12.80;;
8415;SDS011;4245;42.120;24.732;2022-12-07T11:59:19;23.50;;;12.93;;
8415;SDS011;4245;42.120;24.732;2022-12-07T12:01:55;23.60;;;12.40;;
8415;SDS011;4245;42.120;24.732;2022-12-07T12:04:27;23.13;;;13.13;;
8415;SDS011;4245;42.120;24.732;2022-12-07T12:07:07;29.57;;;13.73;;
8415;SDS011;4245;42.120;24.732;2022-12-07T12:09:41;24.27;;;13.43;;
8415;SDS011;4245;42.120;24.732;2022-12-07T12:12:29;24.60;;;13.67;;
8415;SDS011;4245;42.120;24.732;2022-12-07T12:15:09;26.43;;;13.90;;
8415;SDS011;4245;42.120;24.732;2022-12-07T12:17:58;33.07;;;19.73;;
8415;SDS011;4245;42.120;24.732;2022-12-07T12:20:35;29.27;;;14.77;;
8415;SDS011;4245;42.120;24.732;2022-12-07T12:23:10;30.23;;;14.70;;
8415;SDS011;4245;42.120;24.732;2022-12-07T12:25:41;36.80;;;22.47;;
8415;SDS011;4245;42.120;24.732;2022-12-07T12:28:23;26.57;;;14.23;;
8415;SDS011;4245;42.120;24.732;2022-12-07T12:31:06;37.83;;;20.27;;
8415;SDS011;4245;42.120;24.732;2022-12-07T12:33:38;27.90;;;14.23;;
8415;SDS011;4245;42.120;24.732;2022-12-07T12:36:17;24.67;;;13.40;;
8415;SDS011;4245;42.120;24.732;2022-12-07T12:38:50;27.20;;;13.27;;
8415;SDS011;4245;42.120;24.732;2022-12-07T12:41:52;28.13;;;14.43;;
8415;SDS011;4245;42.120;24.732;2022-12-07T12:44:39;27.53;;;14.63;;
8415;SDS011;4245;42.120;24.732;2022-12-07T12:47:40;26.33;;;14.47;;
8415;SDS011;4245;42.120;24.732;2022-12-07T12:50:20;33.67;;;14.10;;
8415;SDS011;4245;42.120;24.732;2022-12-07T12:53:00;25.23;;;13.03;;
8415;SDS011;4245;42.120;24.732;2022-12-07T12:55:52;24.10;;;13.57;;
8415;SDS011;4245;42.120;24.732;2022-12-07T12:58:43;28.10;;;13.90;;
8415;SDS011;4245;42.120;24.732;2022-12-07T13:10:35;29.53;;;14.80;;
8415;SDS011;4245;42.120;24.732;2022-12-07T13:18:56;25.83;;;13.60;;
8415;SDS011;4245;42.120;24.732;2022-12-07T13:21:42;25.43;;;12.47;;
8415;SDS011;4245;42.120;24.732;2022-12-07T13:24:12;23.23;;;11.50;;
8415;SDS011;4245;42.120;24.732;2022-12-07T13:26:41;20.90;;;11.60;;
8415;SDS011;4245;42.120;24.732;2022-12-07T13:29:10;27.37;;;12.13;;
8415;SDS011;4245;42.120;24.732;2022-12-07T13:31:39;22.83;;;12.13;;
8415;SDS011;4245;42.120;24.732;2022-12-07T13:36:57;24.93;;;12.17;;
8415;SDS011;4245;42.120;24.732;2022-12-07T13:39:27;26.03;;;12.63;;
8415;SDS011;4245;42.120;24.732;2022-12-07T13:41:55;28.57;;;13.47;;
8415;SDS011;4245;42.120;24.732;2022-12-07T13:44:23;24.37;;;12.40;;
8415;SDS011;4245;42.120;24.732;2022-12-07T13:46:56;26.27;;;12.87;;
8415;SDS011;4245;42.120;24.732;2022-12-07T13:49:29;24.37;;;12.33;;
8415;SDS011;4245;42.120;24.732;2022-12-07T13:52:08;24.47;;;12.17;;
8415;SDS011;4245;42.120;24.732;2022-12-07T13:54:44;25.30;;;11.83;;
8415;SDS011;4245;42.120;24.732;2022-12-07T13:57:13;21.93;;;11.10;;
8415;SDS011;4245;42.120;24.732;2022-12-07T13:59:41;27.23;;;12.50;;
8415;SDS011;4245;42.120;24.732;2022-12-07T14:02:17;25.40;;;12.27;;
8415;SDS011;4245;42.120;24.732;2022-12-07T14:04:46;23.77;;;11.77;;
8415;SDS011;4245;42.120;24.732;2022-12-07T14:07:19;29.67;;;15.13;;
8415;SDS011;4245;42.120;24.732;2022-12-07T14:09:57;25.83;;;12.73;;
8415;SDS011;4245;42.120;24.732;2022-12-07T14:12:25;23.30;;;11.80;;
8415;SDS011;4245;42.120;24.732;2022-12-07T14:14:53;24.13;;;12.70;;
8415;SDS011;4245;42.120;24.732;2022-12-07T14:17:22;24.87;;;12.60;;
8415;SDS011;4245;42.120;24.732;2022-12-07T14:19:50;27.47;;;13.73;;
8415;SDS011;4245;42.120;24.732;2022-12-07T14:22:22;27.23;;;13.70;;
8415;SDS011;4245;42.120;24.732;2022-12-07T14:27:49;34.77;;;13.37;;
8415;SDS011;4245;42.120;24.732;2022-12-07T14:30:20;26.70;;;13.40;;
8415;SDS011;4245;42.120;24.732;2022-12-07T14:32:50;23.07;;;12.53;;
8415;SDS011;4245;42.120;24.732;2022-12-07T14:35:19;25.70;;;12.70;;
8415;SDS011;4245;42.120;24.732;2022-12-07T14:37:47;28.30;;;12.77;;
8415;SDS011;4245;42.120;24.732;2022-12-07T14:40:17;24.47;;;13.00;;
8415;SDS011;4245;42.120;24.732;2022-12-07T14:42:46;24.10;;;11.70;;
8415;SDS011;4245;42.120;24.732;2022-12-07T14:45:17;33.90;;;13.60;;
8415;SDS011;4245;42.120;24.732;2022-12-07T14:47:46;28.97;;;13.53;;
8415;SDS011;4245;42.120;24.732;2022-12-07T14:50:13;25.53;;;13.43;;
8415;SDS011;4245;42.120;24.732;2022-12-07T14:52:41;39.90;;;16.73;;
8415;SDS011;4245;42.120;24.732;2022-12-07T14:55:13;34.43;;;15.93;;
8415;SDS011;4245;42.120;24.732;2022-12-07T14:57:45;30.43;;;15.83;;
8415;SDS011;4245;42.120;24.732;2022-12-07T15:00:13;37.87;;;16.57;;
8415;SDS011;4245;42.120;24.732;2022-12-07T15:02:42;35.63;;;15.40;;
8415;SDS011;4245;42.120;24.732;2022-12-07T15:05:09;33.00;;;14.83;;
8415;SDS011;4245;42.120;24.732;2022-12-07T15:07:36;36.20;;;16.00;;
8415;SDS011;4245;42.120;24.732;2022-12-07T15:10:03;32.90;;;14.83;;
8415;SDS011;4245;42.120;24.732;2022-12-07T15:12:31;37.57;;;16.07;;
8415;SDS011;4245;42.120;24.732;2022-12-07T15:15:01;34.50;;;13.67;;
8415;SDS011;4245;42.120;24.732;2022-12-07T15:17:28;31.27;;;14.60;;
8415;SDS011;4245;42.120;24.732;2022-12-07T15:19:54;30.07;;;14.70;;
8415;SDS011;4245;42.120;24.732;2022-12-07T15:22:21;38.07;;;16.20;;
8415;SDS011;4245;42.120;24.732;2022-12-07T15:24:48;35.43;;;15.93;;
8415;SDS011;4245;42.120;24.732;2022-12-07T15:27:15;29.90;;;14.60;;